Wildwood, Georgia
Current Conditions -  °F | °C
As of 7:53 AM on Tuesday 21 Oct 2014 (Local Time) from KCHA Reporting Station
Light Fog Light Fog  
Wind Chill: 48°   Ceiling: Unl
Heat Index: 48°   Visibility: 10mi
Dew Point: 46°   Wind: 0mph
Humidity: 93%   Direction: NA
Pressure: 30.02"   Gusts: NA
Location:  34.96°N, 85.41°W
Report Text: KCHA 211153Z 00000KT 10SM BCFG CLR 09/08 A3002 RMK AO2 SLP166 T00890078 10111 20089 51005
Loading
Personal Weather Stations






























Interactive Weather Map
Tropical Storm Tracking
New forecast layout! Learn more

10-Day Weather Forecast

Advertisements
Track Severe Weather on mobile